sensor_id;sensor_type;location;lat;lon;timestamp;temperature;humidity
44843;DHT22;31884;52.538;13.820;2022-11-24T00:01:12;2.50;99.90
44843;DHT22;31884;52.538;13.820;2022-11-24T00:03:39;2.50;99.90
44843;DHT22;31884;52.538;13.820;2022-11-24T00:06:09;2.50;99.90
44843;DHT22;31884;52.538;13.820;2022-11-24T00:08:37;2.50;99.90
44843;DHT22;31884;52.538;13.820;2022-11-24T00:11:04;2.50;99.90
44843;DHT22;31884;52.538;13.820;2022-11-24T00:13:31;2.50;99.90
44843;DHT22;31884;52.538;13.820;2022-11-24T00:16:04;2.50;99.90
44843;DHT22;31884;52.538;13.820;2022-11-24T00:18:30;2.50;99.90
44843;DHT22;31884;52.538;13.820;2022-11-24T00:20:55;2.50;99.90
44843;DHT22;31884;52.538;13.820;2022-11-24T00:23:21;2.60;99.90
44843;DHT22;31884;52.538;13.820;2022-11-24T00:25:46;2.60;99.90
44843;DHT22;31884;52.538;13.820;2022-11-24T00:28:11;2.60;99.90
44843;DHT22;31884;52.538;13.820;2022-11-24T00:30:37;2.60;99.90
44843;DHT22;31884;52.538;13.820;2022-11-24T00:33:02;2.60;99.90
44843;DHT22;31884;52.538;13.820;2022-11-24T00:35:28;2.60;99.90
44843;DHT22;31884;52.538;13.820;2022-11-24T00:37:54;2.60;99.90
44843;DHT22;31884;52.538;13.820;2022-11-24T00:40:20;2.60;99.90
44843;DHT22;31884;52.538;13.820;2022-11-24T00:42:45;2.60;99.90
44843;DHT22;31884;52.538;13.820;2022-11-24T00:45:10;2.60;99.90
44843;DHT22;31884;52.538;13.820;2022-11-24T00:47:36;2.60;99.90
44843;DHT22;31884;52.538;13.820;2022-11-24T00:50:01;2.60;99.90
44843;DHT22;31884;52.538;13.820;2022-11-24T00:52:27;2.50;99.90
44843;DHT22;31884;52.538;13.820;2022-11-24T00:54:52;2.50;99.90
44843;DHT22;31884;52.538;13.820;2022-11-24T00:57:18;2.50;99.90
44843;DHT22;31884;52.538;13.820;2022-11-24T00:59:43;2.50;99.90
44843;DHT22;31884;52.538;13.820;2022-11-24T01:02:09;2.50;99.90
44843;DHT22;31884;52.538;13.820;2022-11-24T01:04:35;2.50;99.90
44843;DHT22;31884;52.538;13.820;2022-11-24T01:07:00;2.50;99.90
44843;DHT22;31884;52.538;13.820;2022-11-24T01:09:26;2.50;99.90
44843;DHT22;31884;52.538;13.820;2022-11-24T01:11:51;2.50;99.90
44843;DHT22;31884;52.538;13.820;2022-11-24T01:14:26;2.50;99.90
44843;DHT22;31884;52.538;13.820;2022-11-24T01:16:52;2.50;99.90
44843;DHT22;31884;52.538;13.820;2022-11-24T01:19:18;2.60;99.90
44843;DHT22;31884;52.538;13.820;2022-11-24T01:21:43;2.50;99.90
44843;DHT22;31884;52.538;13.820;2022-11-24T01:24:09;2.50;99.90
44843;DHT22;31884;52.538;13.820;2022-11-24T01:26:35;2.60;99.90
44843;DHT22;31884;52.538;13.820;2022-11-24T01:29:00;2.50;99.90
44843;DHT22;31884;52.538;13.820;2022-11-24T01:31:26;2.50;99.90
44843;DHT22;31884;52.538;13.820;2022-11-24T01:33:53;2.50;99.90
44843;DHT22;31884;52.538;13.820;2022-11-24T01:36:19;2.50;99.90
44843;DHT22;31884;52.538;13.820;2022-11-24T01:38:44;2.40;99.90
44843;DHT22;31884;52.538;13.820;2022-11-24T01:43:37;2.40;99.90
44843;DHT22;31884;52.538;13.820;2022-11-24T01:46:32;2.40;99.90
44843;DHT22;31884;52.538;13.820;2022-11-24T01:49:33;2.40;99.90
44843;DHT22;31884;52.538;13.820;2022-11-24T01:54:34;2.40;99.90
44843;DHT22;31884;52.538;13.820;2022-11-24T01:57:16;2.40;99.90
44843;DHT22;31884;52.538;13.820;2022-11-24T01:59:44;2.40;99.90
44843;DHT22;31884;52.538;13.820;2022-11-24T02:02:11;2.40;99.90
44843;DHT22;31884;52.538;13.820;2022-11-24T02:04:37;2.40;99.90
44843;DHT22;31884;52.538;13.820;2022-11-24T02:07:04;2.50;99.90
44843;DHT22;31884;52.538;13.820;2022-11-24T02:09:53;2.60;99.90
44843;DHT22;31884;52.538;13.820;2022-11-24T02:12:21;2.50;99.90
44843;DHT22;31884;52.538;13.820;2022-11-24T02:14:48;2.50;99.90
44843;DHT22;31884;52.538;13.820;2022-11-24T02:17:14;2.60;99.90
44843;DHT22;31884;52.538;13.820;2022-11-24T02:22:17;2.60;99.90
44843;DHT22;31884;52.538;13.820;2022-11-24T02:28:02;2.50;99.90
44843;DHT22;31884;52.538;13.820;2022-11-24T02:30:29;2.40;99.90
44843;DHT22;31884;52.538;13.820;2022-11-24T02:32:55;2.40;99.90
44843;DHT22;31884;52.538;13.820;2022-11-24T02:35:21;2.40;99.90
44843;DHT22;31884;52.538;13.820;2022-11-24T02:37:46;2.40;99.90
44843;DHT22;31884;52.538;13.820;2022-11-24T02:40:20;2.40;99.90
44843;DHT22;31884;52.538;13.820;2022-11-24T02:42:50;2.40;99.90
44843;DHT22;31884;52.538;13.820;2022-11-24T02:45:17;2.40;99.90
44843;DHT22;31884;52.538;13.820;2022-11-24T02:47:43;2.40;99.90
44843;DHT22;31884;52.538;13.820;2022-11-24T02:50:08;2.40;99.90
44843;DHT22;31884;52.538;13.820;2022-11-24T02:52:34;2.50;99.90
44843;DHT22;31884;52.538;13.820;2022-11-24T02:54:59;2.50;99.90
44843;DHT22;31884;52.538;13.820;2022-11-24T02:57:25;2.50;99.90
44843;DHT22;31884;52.538;13.820;2022-11-24T02:59:50;2.50;99.90
44843;DHT22;31884;52.538;13.820;2022-11-24T03:02:16;2.50;99.90
44843;DHT22;31884;52.538;13.820;2022-11-24T03:04:41;2.50;99.90
44843;DHT22;31884;52.538;13.820;2022-11-24T03:07:09;2.50;99.90
44843;DHT22;31884;52.538;13.820;2022-11-24T03:09:34;2.40;99.90
44843;DHT22;31884;52.538;13.820;2022-11-24T03:12:00;2.40;99.90
44843;DHT22;31884;52.538;13.820;2022-11-24T03:14:25;2.40;99.90
44843;DHT22;31884;52.538;13.820;2022-11-24T03:16:51;2.40;99.90
44843;DHT22;31884;52.538;13.820;2022-11-24T03:19:16;2.50;99.90
44843;DHT22;31884;52.538;13.820;2022-11-24T03:21:41;2.40;99.90
44843;DHT22;31884;52.538;13.820;2022-11-24T03:24:07;2.50;99.90
44843;DHT22;31884;52.538;13.820;2022-11-24T03:26:33;2.50;99.90
44843;DHT22;31884;52.538;13.820;2022-11-24T03:28:59;2.50;99.90
44843;DHT22;31884;52.538;13.820;2022-11-24T03:31:24;2.40;99.90
44843;DHT22;31884;52.538;13.820;2022-11-24T03:33:50;2.40;99.90
44843;DHT22;31884;52.538;13.820;2022-11-24T03:36:16;2.40;99.90
44843;DHT22;31884;52.538;13.820;2022-11-24T03:38:41;2.40;99.90
44843;DHT22;31884;52.538;13.820;2022-11-24T03:41:07;2.40;99.90
44843;DHT22;31884;52.538;13.820;2022-11-24T03:43:32;2.50;99.90
44843;DHT22;31884;52.538;13.820;2022-11-24T03:45:58;2.40;99.90
44843;DHT22;31884;52.538;13.820;2022-11-24T03:48:23;2.40;99.90
44843;DHT22;31884;52.538;13.820;2022-11-24T03:50:57;2.50;99.90
44843;DHT22;31884;52.538;13.820;2022-11-24T03:53:24;2.40;99.90
44843;DHT22;31884;52.538;13.820;2022-11-24T03:55:50;2.40;99.90
44843;DHT22;31884;52.538;13.820;2022-11-24T03:58:15;2.40;99.90
44843;DHT22;31884;52.538;13.820;2022-11-24T04:00:41;2.40;99.90
44843;DHT22;31884;52.538;13.820;2022-11-24T04:03:06;2.30;99.90
44843;DHT22;31884;52.538;13.820;2022-11-24T04:05:32;2.30;99.90
44843;DHT22;31884;52.538;13.820;2022-11-24T04:08:00;2.30;99.90
44843;DHT22;31884;52.538;13.820;2022-11-24T04:10:28;2.20;99.90
44843;DHT22;31884;52.538;13.820;2022-11-24T04:12:54;2.30;99.90
44843;DHT22;31884;52.538;13.820;2022-11-24T04:15:20;2.30;99.90
44843;DHT22;31884;52.538;13.820;2022-11-24T04:17:48;2.30;99.90
44843;DHT22;31884;52.538;13.820;2022-11-24T04:20:14;2.30;99.90
44843;DHT22;31884;52.538;13.820;2022-11-24T04:22:39;2.30;99.90
44843;DHT22;31884;52.538;13.820;2022-11-24T04:25:06;2.30;99.90
44843;DHT22;31884;52.538;13.820;2022-11-24T04:27:33;2.20;99.90
44843;DHT22;31884;52.538;13.820;2022-11-24T04:29:59;2.30;99.90
44843;DHT22;31884;52.538;13.820;2022-11-24T04:32:24;2.30;99.90
44843;DHT22;31884;52.538;13.820;2022-11-24T04:34:49;2.30;99.90
44843;DHT22;31884;52.538;13.820;2022-11-24T04:37:15;2.30;99.90
44843;DHT22;31884;52.538;13.820;2022-11-24T04:39:40;2.30;99.90
44843;DHT22;31884;52.538;13.820;2022-11-24T04:42:06;2.30;99.90
44843;DHT22;31884;52.538;13.820;2022-11-24T04:44:31;2.30;99.90
44843;DHT22;31884;52.538;13.820;2022-11-24T04:46:57;2.30;99.90
44843;DHT22;31884;52.538;13.820;2022-11-24T04:49:22;2.20;99.90
44843;DHT22;31884;52.538;13.820;2022-11-24T04:51:48;2.20;99.90
44843;DHT22;31884;52.538;13.820;2022-11-24T04:54:14;2.20;99.90
44843;DHT22;31884;52.538;13.820;2022-11-24T04:56:40;2.20;99.90
44843;DHT22;31884;52.538;13.820;2022-11-24T04:59:06;2.20;99.90
44843;DHT22;31884;52.538;13.820;2022-11-24T05:01:32;2.20;99.90
44843;DHT22;31884;52.538;13.820;2022-11-24T05:03:58;2.20;99.90
44843;DHT22;31884;52.538;13.820;2022-11-24T05:06:23;2.20;99.90
44843;DHT22;31884;52.538;13.820;2022-11-24T05:08:51;2.20;99.90
44843;DHT22;31884;52.538;13.820;2022-11-24T05:11:18;2.10;99.90
44843;DHT22;31884;52.538;13.820;2022-11-24T05:13:44;2.10;99.90
44843;DHT22;31884;52.538;13.820;2022-11-24T05:16:09;2.10;99.90
44843;DHT22;31884;52.538;13.820;2022-11-24T05:18:35;2.10;99.90
44843;DHT22;31884;52.538;13.820;2022-11-24T05:21:02;2.10;99.90
44843;DHT22;31884;52.538;13.820;2022-11-24T05:23:28;2.10;99.90
44843;DHT22;31884;52.538;13.820;2022-11-24T05:25:56;2.10;99.90
44843;DHT22;31884;52.538;13.820;2022-11-24T05:28:22;2.00;99.90
44843;DHT22;31884;52.538;13.820;2022-11-24T05:30:48;2.00;99.90
44843;DHT22;31884;52.538;13.820;2022-11-24T05:33:15;2.00;99.90
44843;DHT22;31884;52.538;13.820;2022-11-24T05:35:45;2.00;99.90
44843;DHT22;31884;52.538;13.820;2022-11-24T05:38:11;2.00;99.90
44843;DHT22;31884;52.538;13.820;2022-11-24T05:40:37;2.00;99.90
44843;DHT22;31884;52.538;13.820;2022-11-24T05:43:02;1.90;99.90
44843;DHT22;31884;52.538;13.820;2022-11-24T05:45:28;2.00;99.90
44843;DHT22;31884;52.538;13.820;2022-11-24T05:47:54;2.00;99.90
44843;DHT22;31884;52.538;13.820;2022-11-24T05:50:21;2.00;99.90
44843;DHT22;31884;52.538;13.820;2022-11-24T05:52:48;2.00;99.90
44843;DHT22;31884;52.538;13.820;2022-11-24T05:55:14;2.00;99.90
44843;DHT22;31884;52.538;13.820;2022-11-24T05:57:40;2.00;99.90
44843;DHT22;31884;52.538;13.820;2022-11-24T06:00:07;1.90;99.90
44843;DHT22;31884;52.538;13.820;2022-11-24T06:02:33;1.90;99.90
44843;DHT22;31884;52.538;13.820;2022-11-24T06:04:58;1.90;99.90
44843;DHT22;31884;52.538;13.820;2022-11-24T06:07:24;2.00;99.90
44843;DHT22;31884;52.538;13.820;2022-11-24T06:09:49;1.90;99.90
44843;DHT22;31884;52.538;13.820;2022-11-24T06:12:15;2.00;99.90
44843;DHT22;31884;52.538;13.820;2022-11-24T06:14:41;2.00;99.90
44843;DHT22;31884;52.538;13.820;2022-11-24T06:17:11;2.00;99.90
44843;DHT22;31884;52.538;13.820;2022-11-24T06:19:37;2.00;99.90
44843;DHT22;31884;52.538;13.820;2022-11-24T06:22:02;2.00;99.90
44843;DHT22;31884;52.538;13.820;2022-11-24T06:24:28;2.00;99.90
44843;DHT22;31884;52.538;13.820;2022-11-24T06:26:53;2.00;99.90
44843;DHT22;31884;52.538;13.820;2022-11-24T06:29:19;2.00;99.90
44843;DHT22;31884;52.538;13.820;2022-11-24T06:31:44;2.00;99.90
44843;DHT22;31884;52.538;13.820;2022-11-24T06:34:11;1.90;99.90
44843;DHT22;31884;52.538;13.820;2022-11-24T06:36:37;2.00;99.90
44843;DHT22;31884;52.538;13.820;2022-11-24T06:39:03;2.00;99.90
44843;DHT22;31884;52.538;13.820;2022-11-24T06:41:29;1.90;99.90
44843;DHT22;31884;52.538;13.820;2022-11-24T06:43:55;1.90;99.90
44843;DHT22;31884;52.538;13.820;2022-11-24T06:46:21;2.00;99.90
44843;DHT22;31884;52.538;13.820;2022-11-24T06:48:46;2.00;99.90
44843;DHT22;31884;52.538;13.820;2022-11-24T06:51:12;2.00;99.90
44843;DHT22;31884;52.538;13.820;2022-11-24T06:53:39;2.00;99.90
44843;DHT22;31884;52.538;13.820;2022-11-24T06:56:07;2.00;99.90
44843;DHT22;31884;52.538;13.820;2022-11-24T06:58:33;2.00;99.90
44843;DHT22;31884;52.538;13.820;2022-11-24T07:00:59;2.00;99.90
44843;DHT22;31884;52.538;13.820;2022-11-24T07:03:24;2.00;99.90
44843;DHT22;31884;52.538;13.820;2022-11-24T07:05:57;2.00;99.90
44843;DHT22;31884;52.538;13.820;2022-11-24T07:08:23;2.00;99.90
44843;DHT22;31884;52.538;13.820;2022-11-24T07:10:48;2.00;99.90
44843;DHT22;31884;52.538;13.820;2022-11-24T07:13:14;2.00;99.90
44843;DHT22;31884;52.538;13.820;2022-11-24T07:15:39;2.00;99.90
44843;DHT22;31884;52.538;13.820;2022-11-24T07:18:05;2.00;99.90
44843;DHT22;31884;52.538;13.820;2022-11-24T07:20:30;1.90;99.90
44843;DHT22;31884;52.538;13.820;2022-11-24T07:22:56;1.90;99.90
44843;DHT22;31884;52.538;13.820;2022-11-24T07:25:25;1.90;99.90
44843;DHT22;31884;52.538;13.820;2022-11-24T07:27:58;1.90;99.90
44843;DHT22;31884;52.538;13.820;2022-11-24T07:30:24;2.00;99.90
44843;DHT22;31884;52.538;13.820;2022-11-24T07:32:50;2.00;99.90
44843;DHT22;31884;52.538;13.820;2022-11-24T07:35:15;2.10;99.90
44843;DHT22;31884;52.538;13.820;2022-11-24T07:37:42;2.10;99.90
44843;DHT22;31884;52.538;13.820;2022-11-24T07:40:08;2.10;99.90
44843;DHT22;31884;52.538;13.820;2022-11-24T07:42:33;2.20;99.90
44843;DHT22;31884;52.538;13.820;2022-11-24T07:44:59;2.10;99.90
44843;DHT22;31884;52.538;13.820;2022-11-24T07:47:24;2.10;99.90
44843;DHT22;31884;52.538;13.820;2022-11-24T07:49:50;2.20;99.90
44843;DHT22;31884;52.538;13.820;2022-11-24T07:52:15;2.20;99.90
44843;DHT22;31884;52.538;13.820;2022-11-24T07:54:41;2.30;99.90
44843;DHT22;31884;52.538;13.820;2022-11-24T07:57:06;2.30;99.90
44843;DHT22;31884;52.538;13.820;2022-11-24T07:59:32;2.30;99.90
44843;DHT22;31884;52.538;13.820;2022-11-24T08:01:57;2.40;99.90
44843;DHT22;31884;52.538;13.820;2022-11-24T08:04:23;2.50;99.90
44843;DHT22;31884;52.538;13.820;2022-11-24T08:06:48;2.50;99.90
44843;DHT22;31884;52.538;13.820;2022-11-24T08:09:14;2.50;99.90
44843;DHT22;31884;52.538;13.820;2022-11-24T08:11:39;2.50;99.90
44843;DHT22;31884;52.538;13.820;2022-11-24T08:14:05;2.60;99.90
44843;DHT22;31884;52.538;13.820;2022-11-24T08:16:30;2.60;99.90
44843;DHT22;31884;52.538;13.820;2022-11-24T08:18:56;2.60;99.90
44843;DHT22;31884;52.538;13.820;2022-11-24T08:21:22;2.70;99.90
44843;DHT22;31884;52.538;13.820;2022-11-24T08:23:48;2.70;99.90
44843;DHT22;31884;52.538;13.820;2022-11-24T08:26:15;2.60;99.90
44843;DHT22;31884;52.538;13.820;2022-11-24T08:28:44;2.60;99.90
44843;DHT22;31884;52.538;13.820;2022-11-24T08:31:15;2.50;99.90
44843;DHT22;31884;52.538;13.820;2022-11-24T08:33:41;2.50;99.90
44843;DHT22;31884;52.538;13.820;2022-11-24T08:36:17;2.50;99.90
44843;DHT22;31884;52.538;13.820;2022-11-24T08:38:43;2.60;99.90
44843;DHT22;31884;52.538;13.820;2022-11-24T08:41:14;2.60;99.90
44843;DHT22;31884;52.538;13.820;2022-11-24T08:43:40;2.70;99.90
44843;DHT22;31884;52.538;13.820;2022-11-24T08:46:09;2.80;99.90
44843;DHT22;31884;52.538;13.820;2022-11-24T08:48:35;2.90;99.90
44843;DHT22;31884;52.538;13.820;2022-11-24T08:51:09;2.90;99.90
44843;DHT22;31884;52.538;13.820;2022-11-24T08:53:35;3.00;99.90
44843;DHT22;31884;52.538;13.820;2022-11-24T08:56:01;3.00;99.90
44843;DHT22;31884;52.538;13.820;2022-11-24T08:58:28;3.10;99.90
44843;DHT22;31884;52.538;13.820;2022-11-24T09:00:54;3.10;99.90
44843;DHT22;31884;52.538;13.820;2022-11-24T09:03:19;3.10;99.90
44843;DHT22;31884;52.538;13.820;2022-11-24T09:05:45;3.20;99.90
44843;DHT22;31884;52.538;13.820;2022-11-24T09:08:10;3.20;99.90
44843;DHT22;31884;52.538;13.820;2022-11-24T09:10:36;3.20;99.90
44843;DHT22;31884;52.538;13.820;2022-11-24T09:13:02;3.30;99.90
44843;DHT22;31884;52.538;13.820;2022-11-24T09:15:27;3.30;99.90
44843;DHT22;31884;52.538;13.820;2022-11-24T09:17:53;3.20;99.90
44843;DHT22;31884;52.538;13.820;2022-11-24T09:20:18;3.10;99.90
44843;DHT22;31884;52.538;13.820;2022-11-24T09:22:45;3.10;99.90
44843;DHT22;31884;52.538;13.820;2022-11-24T09:25:12;3.10;99.90
44843;DHT22;31884;52.538;13.820;2022-11-24T09:27:37;3.20;99.90
44843;DHT22;31884;52.538;13.820;2022-11-24T09:30:03;3.20;99.90
44843;DHT22;31884;52.538;13.820;2022-11-24T09:32:29;3.20;99.90
44843;DHT22;31884;52.538;13.820;2022-11-24T09:34:55;3.20;99.90
44843;DHT22;31884;52.538;13.820;2022-11-24T09:37:20;3.20;99.90
44843;DHT22;31884;52.538;13.820;2022-11-24T09:39:46;3.10;99.90
44843;DHT22;31884;52.538;13.820;2022-11-24T09:42:24;3.00;99.90
44843;DHT22;31884;52.538;13.820;2022-11-24T09:47:54;3.10;99.90
44843;DHT22;31884;52.538;13.820;2022-11-24T09:50:27;3.10;99.90
44843;DHT22;31884;52.538;13.820;2022-11-24T09:53:01;3.10;99.90
44843;DHT22;31884;52.538;13.820;2022-11-24T09:55:36;3.20;99.90
44843;DHT22;31884;52.538;13.820;2022-11-24T09:58:14;3.30;99.90
44843;DHT22;31884;52.538;13.820;2022-11-24T10:00:41;3.20;99.90
44843;DHT22;31884;52.538;13.820;2022-11-24T10:03:14;3.30;99.90
44843;DHT22;31884;52.538;13.820;2022-11-24T10:05:41;3.30;99.90
44843;DHT22;31884;52.538;13.820;2022-11-24T10:10:54;3.50;99.90
44843;DHT22;31884;52.538;13.820;2022-11-24T10:16:36;3.60;99.90
44843;DHT22;31884;52.538;13.820;2022-11-24T10:28:01;3.70;99.90
44843;DHT22;31884;52.538;13.820;2022-11-24T10:30:28;3.70;99.90
44843;DHT22;31884;52.538;13.820;2022-11-24T10:33:16;3.70;99.90
44843;DHT22;31884;52.538;13.820;2022-11-24T10:35:46;3.70;99.90
44843;DHT22;31884;52.538;13.820;2022-11-24T10:38:37;3.70;99.90
44843;DHT22;31884;52.538;13.820;2022-11-24T10:41:20;3.80;99.90
44843;DHT22;31884;52.538;13.820;2022-11-24T10:43:48;3.80;99.90
44843;DHT22;31884;52.538;13.820;2022-11-24T10:46:21;3.90;99.90
44843;DHT22;31884;52.538;13.820;2022-11-24T10:49:01;4.00;99.90
44843;DHT22;31884;52.538;13.820;2022-11-24T10:56:42;4.20;99.90
44843;DHT22;31884;52.538;13.820;2022-11-24T10:59:36;4.20;99.90
44843;DHT22;31884;52.538;13.820;2022-11-24T11:02:29;4.30;99.90
44843;DHT22;31884;52.538;13.820;2022-11-24T11:04:54;4.30;99.90
44843;DHT22;31884;52.538;13.820;2022-11-24T11:07:25;4.40;99.90
44843;DHT22;31884;52.538;13.820;2022-11-24T11:10:18;4.50;99.90
44843;DHT22;31884;52.538;13.820;2022-11-24T11:12:44;4.60;99.90
44843;DHT22;31884;52.538;13.820;2022-11-24T11:15:28;4.60;99.90
44843;DHT22;31884;52.538;13.820;2022-11-24T11:17:56;4.60;99.90
44843;DHT22;31884;52.538;13.820;2022-11-24T11:20:33;4.70;99.90
44843;DHT22;31884;52.538;13.820;2022-11-24T11:23:14;4.80;99.90
44843;DHT22;31884;52.538;13.820;2022-11-24T11:25:39;4.80;99.90
44843;DHT22;31884;52.538;13.820;2022-11-24T11:28:26;4.90;99.90
44843;DHT22;31884;52.538;13.820;2022-11-24T11:31:04;5.00;99.90
44843;DHT22;31884;52.538;13.820;2022-11-24T11:33:32;5.00;99.90
44843;DHT22;31884;52.538;13.820;2022-11-24T11:36:00;5.00;99.90
44843;DHT22;31884;52.538;13.820;2022-11-24T11:38:34;5.00;99.90
44843;DHT22;31884;52.538;13.820;2022-11-24T11:41:01;5.00;99.90
44843;DHT22;31884;52.538;13.820;2022-11-24T11:43:38;5.10;99.90
44843;DHT22;31884;52.538;13.820;2022-11-24T11:46:13;5.10;99.90
44843;DHT22;31884;52.538;13.820;2022-11-24T11:48:43;5.10;99.90
44843;DHT22;31884;52.538;13.820;2022-11-24T11:56:48;5.20;99.90
44843;DHT22;31884;52.538;13.820;2022-11-24T12:02:24;5.30;99.90
44843;DHT22;31884;52.538;13.820;2022-11-24T12:07:51;5.30;99.90
44843;DHT22;31884;52.538;13.820;2022-11-24T12:10:33;5.40;99.90
44843;DHT22;31884;52.538;13.820;2022-11-24T12:13:11;5.40;99.90
44843;DHT22;31884;52.538;13.820;2022-11-24T12:15:48;5.40;99.90
44843;DHT22;31884;52.538;13.820;2022-11-24T12:18:31;5.30;99.90
44843;DHT22;31884;52.538;13.820;2022-11-24T12:21:18;5.30;99.90
44843;DHT22;31884;52.538;13.820;2022-11-24T12:23:59;5.20;99.90
44843;DHT22;31884;52.538;13.820;2022-11-24T12:29:57;4.90;99.90
44843;DHT22;31884;52.538;13.820;2022-11-24T12:35:21;4.90;99.90
44843;DHT22;31884;52.538;13.820;2022-11-24T12:38:04;4.90;99.90
44843;DHT22;31884;52.538;13.820;2022-11-24T12:43:39;4.70;99.90
44843;DHT22;31884;52.538;13.820;2022-11-24T12:51:46;4.70;99.90
44843;DHT22;31884;52.538;13.820;2022-11-24T12:54:16;4.70;99.90
44843;DHT22;31884;52.538;13.820;2022-11-24T13:03:10;4.60;99.90
44843;DHT22;31884;52.538;13.820;2022-11-24T13:07:46;4.50;99.90
44843;DHT22;31884;52.538;13.820;2022-11-24T13:10:25;4.60;99.90
44843;DHT22;31884;52.538;13.820;2022-11-24T13:15:26;4.60;99.90
44843;DHT22;31884;52.538;13.820;2022-11-24T13:17:52;4.70;99.90
44843;DHT22;31884;52.538;13.820;2022-11-24T13:23:00;4.70;99.90
44843;DHT22;31884;52.538;13.820;2022-11-24T13:25:30;4.70;99.90
44843;DHT22;31884;52.538;13.820;2022-11-24T13:27:58;4.70;99.90
44843;DHT22;31884;52.538;13.820;2022-11-24T13:35:36;4.80;99.90
44843;DHT22;31884;52.538;13.820;2022-11-24T13:38:02;4.80;99.90
44843;DHT22;31884;52.538;13.820;2022-11-24T13:58:38;4.70;99.90
44843;DHT22;31884;52.538;13.820;2022-11-24T14:09:45;4.70;99.90
44843;DHT22;31884;52.538;13.820;2022-11-24T14:12:18;4.70;99.90
44843;DHT22;31884;52.538;13.820;2022-11-24T14:14:46;4.70;99.90
44843;DHT22;31884;52.538;13.820;2022-11-24T14:19:37;4.70;99.90
44843;DHT22;31884;52.538;13.820;2022-11-24T14:22:03;4.70;99.90
44843;DHT22;31884;52.538;13.820;2022-11-24T14:24:32;4.60;99.90
44843;DHT22;31884;52.538;13.820;2022-11-24T14:26:58;4.60;99.90
44843;DHT22;31884;52.538;13.820;2022-11-24T14:29:25;4.50;99.90
44843;DHT22;31884;52.538;13.820;2022-11-24T14:32:11;4.50;99.90
44843;DHT22;31884;52.538;13.820;2022-11-24T14:34:39;4.40;99.90
44843;DHT22;31884;52.538;13.820;2022-11-24T14:37:07;4.40;99.90
44843;DHT22;31884;52.538;13.820;2022-11-24T14:39:39;4.40;99.90
44843;DHT22;31884;52.538;13.820;2022-11-24T14:44:50;4.30;99.90
44843;DHT22;31884;52.538;13.820;2022-11-24T14:47:25;4.30;99.90
44843;DHT22;31884;52.538;13.820;2022-11-24T14:49:51;4.40;99.90
44843;DHT22;31884;52.538;13.820;2022-11-24T14:52:19;4.30;99.90
44843;DHT22;31884;52.538;13.820;2022-11-24T14:54:51;4.20;99.90
44843;DHT22;31884;52.538;13.820;2022-11-24T14:57:32;4.30;99.90
44843;DHT22;31884;52.538;13.820;2022-11-24T15:00:19;4.30;99.90
44843;DHT22;31884;52.538;13.820;2022-11-24T15:02:51;4.40;99.90
44843;DHT22;31884;52.538;13.820;2022-11-24T15:05:20;4.40;99.90
44843;DHT22;31884;52.538;13.820;2022-11-24T15:07:48;4.40;99.90
44843;DHT22;31884;52.538;13.820;2022-11-24T15:10:22;4.40;99.90
44843;DHT22;31884;52.538;13.820;2022-11-24T15:12:56;4.40;99.90
44843;DHT22;31884;52.538;13.820;2022-11-24T15:15:28;4.40;99.90
44843;DHT22;31884;52.538;13.820;2022-11-24T15:17:57;4.40;99.90
44843;DHT22;31884;52.538;13.820;2022-11-24T15:20:30;4.40;99.90
44843;DHT22;31884;52.538;13.820;2022-11-24T15:23:23;4.50;99.90
44843;DHT22;31884;52.538;13.820;2022-11-24T15:25:56;4.50;99.90
44843;DHT22;31884;52.538;13.820;2022-11-24T15:28:23;4.50;99.90
44843;DHT22;31884;52.538;13.820;2022-11-24T15:30:58;4.40;99.90
44843;DHT22;31884;52.538;13.820;2022-11-24T15:33:24;4.40;99.90
44843;DHT22;31884;52.538;13.820;2022-11-24T15:35:49;4.40;99.90
44843;DHT22;31884;52.538;13.820;2022-11-24T15:38:15;4.40;99.90
44843;DHT22;31884;52.538;13.820;2022-11-24T15:40:43;4.40;99.90
44843;DHT22;31884;52.538;13.820;2022-11-24T15:43:28;4.40;99.90
44843;DHT22;31884;52.538;13.820;2022-11-24T15:45:55;4.30;99.90
44843;DHT22;31884;52.538;13.820;2022-11-24T15:48:21;4.40;99.90
44843;DHT22;31884;52.538;13.820;2022-11-24T15:50:47;4.40;99.90
44843;DHT22;31884;52.538;13.820;2022-11-24T15:53:34;4.40;99.90
44843;DHT22;31884;52.538;13.820;2022-11-24T15:56:01;4.40;99.90
44843;DHT22;31884;52.538;13.820;2022-11-24T15:58:27;4.40;99.90
44843;DHT22;31884;52.538;13.820;2022-11-24T16:00:53;4.40;99.90
44843;DHT22;31884;52.538;13.820;2022-11-24T16:03:19;4.40;99.90
44843;DHT22;31884;52.538;13.820;2022-11-24T16:05:46;4.40;99.90
44843;DHT22;31884;52.538;13.820;2022-11-24T16:08:14;4.40;99.90
44843;DHT22;31884;52.538;13.820;2022-11-24T16:10:40;4.40;99.90
44843;DHT22;31884;52.538;13.820;2022-11-24T16:13:06;4.40;99.90
44843;DHT22;31884;52.538;13.820;2022-11-24T16:15:32;4.40;99.90
44843;DHT22;31884;52.538;13.820;2022-11-24T16:17:57;4.40;99.90
44843;DHT22;31884;52.538;13.820;2022-11-24T16:20:23;4.30;99.90
44843;DHT22;31884;52.538;13.820;2022-11-24T16:22:48;4.30;99.90
44843;DHT22;31884;52.538;13.820;2022-11-24T16:25:14;4.40;99.90
44843;DHT22;31884;52.538;13.820;2022-11-24T16:27:40;4.40;99.90
44843;DHT22;31884;52.538;13.820;2022-11-24T16:30:06;4.40;99.90
44843;DHT22;31884;52.538;13.820;2022-11-24T16:32:33;4.40;99.90
44843;DHT22;31884;52.538;13.820;2022-11-24T16:34:59;4.40;99.90
44843;DHT22;31884;52.538;13.820;2022-11-24T16:37:24;4.40;99.90
44843;DHT22;31884;52.538;13.820;2022-11-24T16:39:50;4.40;99.90
44843;DHT22;31884;52.538;13.820;2022-11-24T16:42:15;4.40;99.90
44843;DHT22;31884;52.538;13.820;2022-11-24T16:44:41;4.40;99.90
44843;DHT22;31884;52.538;13.820;2022-11-24T16:47:06;4.50;99.90
44843;DHT22;31884;52.538;13.820;2022-11-24T16:49:32;4.50;99.90
44843;DHT22;31884;52.538;13.820;2022-11-24T16:51:57;4.50;99.90
44843;DHT22;31884;52.538;13.820;2022-11-24T16:54:23;4.50;99.90
44843;DHT22;31884;52.538;13.820;2022-11-24T16:56:50;4.50;99.90
44843;DHT22;31884;52.538;13.820;2022-11-24T16:59:15;4.50;99.90
44843;DHT22;31884;52.538;13.820;2022-11-24T17:01:41;4.50;99.90
44843;DHT22;31884;52.538;13.820;2022-11-24T17:04:07;4.50;99.90
44843;DHT22;31884;52.538;13.820;2022-11-24T17:06:33;4.50;99.90
44843;DHT22;31884;52.538;13.820;2022-11-24T17:08:59;4.50;99.90
44843;DHT22;31884;52.538;13.820;2022-11-24T17:11:26;4.50;99.90
44843;DHT22;31884;52.538;13.820;2022-11-24T17:13:52;4.50;99.90
44843;DHT22;31884;52.538;13.820;2022-11-24T17:16:22;4.50;99.90
44843;DHT22;31884;52.538;13.820;2022-11-24T17:18:48;4.60;99.90
44843;DHT22;31884;52.538;13.820;2022-11-24T17:21:22;4.50;99.90
44843;DHT22;31884;52.538;13.820;2022-11-24T17:23:56;4.50;99.90
44843;DHT22;31884;52.538;13.820;2022-11-24T17:26:22;4.50;99.90
44843;DHT22;31884;52.538;13.820;2022-11-24T17:28:48;4.50;99.90